Time,TemperatureF,DewpointF,PressureIn,WindDirection,WindDirectionDegrees,WindSpeedMPH,WindSpeedGustMPH,Humidity,HourlyPrecipIn,Conditions,Clouds,dailyrainin,SoftwareType,DateUTC
2013-07-18 00:06:00,76.3,70.4,30.01,SW,225,0.0,-999.0,82,-99.99,,,0.00,Acu-Link.com,2013-07-18 04:06:00,
2013-07-18 00:21:00,76.1,70.2,30.00,SW,225,0.0,-999.0,82,-99.99,,,0.00,Acu-Link.com,2013-07-18 04:21:00,
2013-07-18 00:37:00,75.9,70.0,30.00,West,270,0.0,-999.0,82,-99.99,,,0.00,Acu-Link.com,2013-07-18 04:37:00,
2013-07-18 00:52:00,75.9,70.4,30.00,West,270,0.0,-999.0,83,-99.99,,,0.00,Acu-Link.com,2013-07-18 04:52:00,
2013-07-18 01:07:00,76.3,70.4,29.99,West,270,0.0,-999.0,82,-99.99,,,0.00,Acu-Link.com,2013-07-18 05:07:00,
2013-07-18 01:23:00,76.5,70.6,29.99,West,270,0.0,-999.0,82,-99.99,,,0.00,Acu-Link.com,2013-07-18 05:23:00,
2013-07-18 01:38:00,76.3,70.4,29.99,West,270,0.0,-999.0,82,-99.99,,,0.00,Acu-Link.com,2013-07-18 05:38:00,
2013-07-18 01:53:00,76.8,70.5,29.98,West,270,0.0,-999.0,81,-99.99,,,0.00,Acu-Link.com,2013-07-18 05:53:00,
2013-07-18 02:09:00,76.8,70.5,29.98,WSW,247,0.0,-999.0,81,-99.99,,,0.00,Acu-Link.com,2013-07-18 06:09:00,
2013-07-18 02:24:00,76.6,71.0,29.97,WSW,247,0.0,-999.0,83,-99.99,,,0.00,Acu-Link.com,2013-07-18 06:24:00,
2013-07-18 02:39:00,76.3,71.1,29.97,West,270,2.2,-999.0,84,-99.99,,,0.00,Acu-Link.com,2013-07-18 06:39:00,
2013-07-18 02:55:00,75.9,71.1,29.96,NNW,337,0.0,-999.0,85,-99.99,,,0.00,Acu-Link.com,2013-07-18 06:55:00,
2013-07-18 03:10:00,75.7,71.2,29.96,NW,315,0.0,-999.0,86,-99.99,,,0.00,Acu-Link.com,2013-07-18 07:10:00,
2013-07-18 03:25:00,75.6,71.4,29.95,West,270,0.0,-999.0,87,-99.99,,,0.00,Acu-Link.com,2013-07-18 07:25:00,
2013-07-18 03:40:00,75.0,71.2,29.96,East,90,0.0,-999.0,88,-99.99,,,0.00,Acu-Link.com,2013-07-18 07:40:00,
2013-07-18 03:56:00,74.8,71.0,29.96,NE,45,0.0,-999.0,88,-99.99,,,0.00,Acu-Link.com,2013-07-18 07:56:00,
2013-07-18 04:11:00,74.3,70.8,29.96,NE,45,0.0,-999.0,89,-99.99,,,0.00,Acu-Link.com,2013-07-18 08:11:00,
2013-07-18 04:27:00,74.1,71.0,29.96,NE,45,0.0,-999.0,90,-99.99,,,0.00,Acu-Link.com,2013-07-18 08:27:00,
2013-07-18 04:42:00,73.8,70.7,29.95,NNE,22,0.0,-999.0,90,-99.99,,,0.00,Acu-Link.com,2013-07-18 08:42:00,
2013-07-18 04:57:00,73.4,70.6,29.96,ESE,112,0.0,-999.0,91,-99.99,,,0.00,Acu-Link.com,2013-07-18 08:57:00,
2013-07-18 05:12:00,73.8,71.0,29.96,SSE,157,3.2,-999.0,91,-99.99,,,0.00,Acu-Link.com,2013-07-18 09:12:00,
2013-07-18 05:27:00,74.1,71.3,29.97,South,180,2.7,-999.0,91,-99.99,,,0.00,Acu-Link.com,2013-07-18 09:27:00,
2013-07-18 05:42:00,74.1,71.0,29.97,SSE,157,2.2,-999.0,90,-99.99,,,0.00,Acu-Link.com,2013-07-18 09:42:00,
2013-07-18 05:58:00,74.1,71.0,29.98,ESE,112,0.0,-999.0,90,-99.99,,,0.00,Acu-Link.com,2013-07-18 09:58:00,
2013-07-18 06:13:00,73.8,71.0,29.97,South,180,0.0,-999.0,91,-99.99,,,0.00,Acu-Link.com,2013-07-18 10:13:00,
2013-07-18 06:28:00,73.6,71.1,29.97,South,180,0.0,-999.0,92,-99.99,,,0.00,Acu-Link.com,2013-07-18 10:28:00,
2013-07-18 06:43:00,73.8,71.3,29.98,SSE,157,2.7,-999.0,92,-99.99,,,0.00,Acu-Link.com,2013-07-18 10:43:00,
2013-07-18 06:59:00,73.9,71.1,29.98,SSE,157,2.2,-999.0,91,-99.99,,,0.00,Acu-Link.com,2013-07-18 10:59:00,
2013-07-18 07:14:00,74.3,71.5,29.97,SW,225,1.1,-999.0,91,-99.99,,,0.00,Acu-Link.com,2013-07-18 11:14:00,
2013-07-18 07:29:00,75.0,71.9,29.98,WSW,247,2.2,-999.0,90,-99.99,,,0.00,Acu-Link.com,2013-07-18 11:29:00,
2013-07-18 07:44:00,76.1,71.9,29.97,West,270,4.2,-999.0,87,-99.99,,,0.00,Acu-Link.com,2013-07-18 11:44:00,
2013-07-18 07:59:00,77.5,72.3,29.97,WSW,247,2.2,-999.0,84,-99.99,,,0.00,Acu-Link.com,2013-07-18 11:59:00,
2013-07-18 08:15:00,78.1,72.9,29.97,WSW,247,0.0,-999.0,84,-99.99,,,0.00,Acu-Link.com,2013-07-18 12:15:00,
2013-07-18 08:30:00,78.8,73.2,29.98,West,270,0.0,-999.0,83,-99.99,,,0.00,Acu-Link.com,2013-07-18 12:30:00,
2013-07-18 08:45:00,79.2,73.6,29.99,SSW,202,0.0,-999.0,83,-99.99,,,0.00,Acu-Link.com,2013-07-18 12:45:00,
2013-07-18 09:01:00,80.2,73.8,29.99,ESE,112,0.0,-999.0,81,-99.99,,,0.00,Acu-Link.com,2013-07-18 13:01:00,
2013-07-18 09:16:00,81.1,73.6,29.99,West,270,0.0,-999.0,78,-99.99,,,0.00,Acu-Link.com,2013-07-18 13:16:00,
2013-07-18 09:31:00,82.6,74.2,29.99,WNW,292,0.0,-999.0,76,-99.99,,,0.00,Acu-Link.com,2013-07-18 13:31:00,
2013-07-18 09:46:00,83.5,75.1,29.99,SW,225,0.0,-999.0,76,-99.99,,,0.00,Acu-Link.com,2013-07-18 13:46:00,
2013-07-18 10:02:00,82.9,74.9,29.98,WNW,292,0.0,-999.0,77,-99.99,,,0.00,Acu-Link.com,2013-07-18 14:02:00,
2013-07-18 10:17:00,83.5,74.7,29.99,East,90,2.2,-999.0,75,-99.99,,,0.00,Acu-Link.com,2013-07-18 14:17:00,
2013-07-18 10:32:00,84.2,75.8,29.99,NNW,337,0.0,-999.0,76,-99.99,,,0.00,Acu-Link.com,2013-07-18 14:32:00,
2013-07-18 10:47:00,85.6,76.7,29.99,NNE,22,2.2,-999.0,75,-99.99,,,0.00,Acu-Link.com,2013-07-18 14:47:00,
2013-07-18 11:03:00,83.8,75.4,30.00,ENE,67,2.2,-999.0,76,-99.99,,,0.00,Acu-Link.com,2013-07-18 15:03:00,
2013-07-18 11:18:00,85.3,76.5,29.99,ENE,67,4.2,-999.0,75,-99.99,,,0.00,Acu-Link.com,2013-07-18 15:18:00,
2013-07-18 11:33:00,86.5,77.2,29.99,North,0,2.2,-999.0,74,-99.99,,,0.00,Acu-Link.com,2013-07-18 15:33:00,
2013-07-18 11:48:00,86.4,76.3,29.99,ENE,67,3.7,-999.0,72,-99.99,,,0.00,Acu-Link.com,2013-07-18 15:48:00,
2013-07-18 12:04:00,87.8,76.3,29.98,NE,45,3.2,-999.0,69,-99.99,,,0.00,Acu-Link.com,2013-07-18 16:04:00,
2013-07-18 12:19:00,86.2,76.5,29.98,ENE,67,1.1,-999.0,73,-99.99,,,0.00,Acu-Link.com,2013-07-18 16:19:00,
2013-07-18 12:34:00,88.0,77.0,29.98,NNW,337,3.7,-999.0,70,-99.99,,,0.00,Acu-Link.com,2013-07-18 16:34:00,
2013-07-18 12:50:00,89.2,77.2,29.98,East,90,1.1,-999.0,68,-99.99,,,0.00,Acu-Link.com,2013-07-18 16:50:00,
2013-07-18 13:05:00,84.9,75.3,29.97,West,270,3.2,-999.0,73,-99.99,,,0.00,Acu-Link.com,2013-07-18 17:05:00,
2013-07-18 13:20:00,82.2,74.3,29.96,SSW,202,2.7,-999.0,77,-99.99,,,0.00,Acu-Link.com,2013-07-18 17:20:00,
2013-07-18 13:35:00,81.5,72.0,29.97,NNE,22,5.8,-999.0,73,-99.99,,,0.00,Acu-Link.com,2013-07-18 17:35:00,
2013-07-18 13:50:00,81.7,73.4,29.97,SW,225,1.7,-999.0,76,-99.99,,,0.00,Acu-Link.com,2013-07-18 17:50:00,
2013-07-18 14:06:00,82.8,75.6,29.96,South,180,2.2,-999.0,79,-99.99,,,0.00,Acu-Link.com,2013-07-18 18:06:00,
2013-07-18 14:21:00,80.4,75.8,29.96,ENE,67,0.0,-999.0,86,-99.99,,,0.00,Acu-Link.com,2013-07-18 18:21:00,
2013-07-18 14:36:00,83.5,78.9,29.95,WSW,247,1.7,-999.0,86,-99.99,,,0.01,Acu-Link.com,2013-07-18 18:36:00,
2013-07-18 14:51:00,82.8,75.6,29.94,SSW,202,3.2,-999.0,79,-99.99,,,0.01,Acu-Link.com,2013-07-18 18:51:00,
2013-07-18 15:06:00,84.7,76.3,29.93,SW,225,2.7,-999.0,76,-99.99,,,0.01,Acu-Link.com,2013-07-18 19:06:00,
2013-07-18 15:21:00,84.0,73.6,29.93,West,270,2.7,-999.0,71,-99.99,,,0.01,Acu-Link.com,2013-07-18 19:21:00,
2013-07-18 15:37:00,83.3,72.9,29.92,West,270,2.7,-999.0,71,-99.99,,,0.01,Acu-Link.com,2013-07-18 19:37:00,
2013-07-18 15:52:00,85.1,73.8,29.91,SE,135,1.7,-999.0,69,-99.99,,,0.01,Acu-Link.com,2013-07-18 19:52:00,
2013-07-18 16:07:00,84.4,75.2,29.90,WSW,247,0.0,-999.0,74,-99.99,,,0.01,Acu-Link.com,2013-07-18 20:07:00,
2013-07-18 16:22:00,85.6,74.7,29.90,SW,225,1.7,-999.0,70,-99.99,,,0.01,Acu-Link.com,2013-07-18 20:22:00,
2013-07-18 16:38:00,86.4,75.0,29.90,West,270,2.7,-999.0,69,-99.99,,,0.01,Acu-Link.com,2013-07-18 20:38:00,
2013-07-18 16:53:00,86.5,75.1,29.90,East,90,0.0,-999.0,69,-99.99,,,0.01,Acu-Link.com,2013-07-18 20:53:00,
2013-07-18 17:09:00,88.0,74.7,29.88,WSW,247,1.1,-999.0,65,-99.99,,,0.01,Acu-Link.com,2013-07-18 21:09:00,
2013-07-18 17:24:00,87.3,74.1,29.87,NNE,22,2.7,-999.0,65,-99.99,,,0.01,Acu-Link.com,2013-07-18 21:24:00,
2013-07-18 17:39:00,87.8,75.9,29.87,NE,45,1.1,-999.0,68,-99.99,,,0.01,Acu-Link.com,2013-07-18 21:39:00,
2013-07-18 17:54:00,88.3,75.9,29.87,NE,45,2.7,-999.0,67,-99.99,,,0.01,Acu-Link.com,2013-07-18 21:54:00,
2013-07-18 18:10:00,88.7,76.3,29.86,ESE,112,4.2,-999.0,67,-99.99,,,0.01,Acu-Link.com,2013-07-18 22:10:00,
2013-07-18 18:25:00,89.8,76.4,29.86,ENE,67,2.7,-999.0,65,-99.99,,,0.01,Acu-Link.com,2013-07-18 22:25:00,
2013-07-18 18:40:00,89.1,76.2,29.86,NNE,22,0.0,-999.0,66,-99.99,,,0.01,Acu-Link.com,2013-07-18 22:40:00,
2013-07-18 18:55:00,88.0,75.6,29.85,NNE,22,0.0,-999.0,67,-99.99,,,0.01,Acu-Link.com,2013-07-18 22:55:00,
2013-07-18 19:10:00,88.2,76.3,29.85,ENE,67,1.1,-999.0,68,-99.99,,,0.01,Acu-Link.com,2013-07-18 23:10:00,
2013-07-18 19:25:00,87.6,76.6,29.85,ENE,67,0.0,-999.0,70,-99.99,,,0.01,Acu-Link.com,2013-07-18 23:25:00,
2013-07-18 19:41:00,86.7,76.6,29.86,NNE,22,0.0,-999.0,72,-99.99,,,0.01,Acu-Link.com,2013-07-18 23:41:00,
2013-07-18 19:56:00,86.2,76.1,29.86,East,90,0.0,-999.0,72,-99.99,,,0.01,Acu-Link.com,2013-07-18 23:56:00,
2013-07-18 20:11:00,84.9,75.3,29.87,East,90,0.0,-999.0,73,-99.99,,,0.01,Acu-Link.com,2013-07-19 00:11:00,
2013-07-18 20:26:00,84.6,75.0,29.88,East,90,0.0,-999.0,73,-99.99,,,0.01,Acu-Link.com,2013-07-19 00:26:00,
2013-07-18 20:41:00,83.5,74.7,29.87,East,90,0.0,-999.0,75,-99.99,,,0.01,Acu-Link.com,2013-07-19 00:41:00,
2013-07-18 20:57:00,82.9,75.3,29.87,East,90,0.0,-999.0,78,-99.99,,,0.01,Acu-Link.com,2013-07-19 00:57:00,
2013-07-18 21:12:00,82.0,75.2,29.86,East,90,0.0,-999.0,80,-99.99,,,0.01,Acu-Link.com,2013-07-19 01:12:00,
2013-07-18 21:27:00,81.3,74.9,29.86,East,90,0.0,-999.0,81,-99.99,,,0.01,Acu-Link.com,2013-07-19 01:27:00,
2013-07-18 21:42:00,81.5,75.1,29.86,South,180,2.2,-999.0,81,-99.99,,,0.01,Acu-Link.com,2013-07-19 01:42:00,
2013-07-18 21:58:00,81.1,74.3,29.87,South,180,0.0,-999.0,80,-99.99,,,0.01,Acu-Link.com,2013-07-19 01:58:00,
2013-07-18 22:13:00,80.1,74.8,29.87,ENE,67,0.0,-999.0,84,-99.99,,,0.01,Acu-Link.com,2013-07-19 02:13:00,
2013-07-18 22:28:00,80.2,72.3,29.87,SW,225,1.7,-999.0,77,-99.99,,,0.01,Acu-Link.com,2013-07-19 02:28:00,
2013-07-18 22:44:00,79.5,72.0,29.88,SSW,202,0.0,-999.0,78,-99.99,,,0.01,Acu-Link.com,2013-07-19 02:44:00,
2013-07-18 22:59:00,79.3,71.1,29.89,SE,135,2.2,-999.0,76,-99.99,,,0.01,Acu-Link.com,2013-07-19 02:59:00,
2013-07-18 23:14:00,78.8,70.2,29.89,WSW,247,0.0,-999.0,75,-99.99,,,0.01,Acu-Link.com,2013-07-19 03:14:00,
2013-07-18 23:30:00,78.3,69.3,29.87,SW,225,1.7,-999.0,74,-99.99,,,0.01,Acu-Link.com,2013-07-19 03:30:00,
2013-07-18 23:45:00,77.9,69.3,29.87,West,270,0.0,-999.0,75,-99.99,,,0.01,Acu-Link.com,2013-07-19 03:45:00,